Time;durP1;ratioP1;P1;durP2;ratioP2;P2;SDS_P1;SDS_P2;PMS_P1;PMS_P2;Temp;Humidity;BMP_temperature;BMP_pressure;BME280_temperature;BME280_humidity;BME280_pressure;Samples;Min_cycle;Max_cycle;Signal;HPM_P1;HPM_P2
2023/07/12 00:00:29;;;;;;;3.97;2.00;;;29.50;51.00;30.10;100091.00;;;;5010156;28;20174;-53
2023/07/12 00:02:55;;;;;;;3.22;2.20;;;29.50;51.00;30.00;100073.00;;;;5008709;28;20269;-53
2023/07/12 00:05:21;;;;;;;2.05;1.85;;;29.40;50.90;30.00;100080.00;;;;5012286;28;20251;-59
2023/07/12 00:07:47;;;;;;;1.95;1.77;;;29.40;50.90;30.00;100074.00;;;;4995700;28;20192;-53
2023/07/12 00:10:25;;;;;;;2.20;2.00;;;29.40;50.90;30.00;100074.00;;;;5008736;28;20310;-52
2023/07/12 00:12:51;;;;;;;2.30;2.00;;;29.40;51.20;30.00;100077.00;;;;5010040;28;20191;-53
2023/07/12 00:15:28;;;;;;;2.80;2.15;;;29.40;51.20;30.00;100087.00;;;;5009561;28;20171;-52
2023/07/12 00:17:54;;;;;;;2.65;2.13;;;29.40;51.20;30.00;100085.00;;;;5008651;28;20708;-53
2023/07/12 00:20:34;;;;;;;2.15;1.95;;;29.40;51.20;30.00;100085.00;;;;5009487;28;20192;-53
2023/07/12 00:23:00;;;;;;;2.53;2.00;;;29.40;51.10;29.90;100030.00;;;;5006959;28;20210;-52
2023/07/12 00:25:31;;;;;;;2.50;1.90;;;29.30;51.10;29.90;100061.00;;;;5007344;28;20199;-53
2023/07/12 00:27:57;;;;;;;2.05;1.92;;;29.30;51.00;29.90;100063.00;;;;5007067;28;20275;-53
2023/07/12 00:30:26;;;;;;;2.20;1.90;;;29.30;50.70;29.80;100066.00;;;;5008698;28;20222;-54
2023/07/12 00:32:54;;;;;;;1.95;1.73;;;29.30;50.60;29.80;100082.00;;;;5008439;28;20171;-53
2023/07/12 00:35:23;;;;;;;3.08;2.03;;;29.20;50.50;29.80;100090.00;;;;5015709;28;20183;-53
2023/07/12 00:37:52;;;;;;;3.35;1.90;;;29.20;50.40;29.80;100107.00;;;;5012229;28;20195;-52
2023/07/12 00:40:51;;;;;;;2.58;1.90;;;29.20;50.40;29.80;100105.00;;;;5008954;28;20175;-54
2023/07/12 00:43:36;;;;;;;2.60;1.73;;;29.20;50.50;29.70;100106.00;;;;5008733;28;20255;-53
2023/07/12 00:46:16;;;;;;;2.17;1.90;;;29.20;50.50;29.70;100097.00;;;;5007889;28;20176;-52
2023/07/12 00:48:44;;;;;;;1.80;1.70;;;29.10;50.50;29.70;100097.00;;;;5008420;28;20665;-53
2023/07/12 00:51:44;;;;;;;2.63;2.03;;;29.10;50.60;29.70;100097.00;;;;5017264;28;20274;-53
2023/07/12 00:54:18;;;;;;;2.95;1.95;;;29.10;50.60;29.60;100093.00;;;;5011804;28;20202;-53
2023/07/12 00:56:44;;;;;;;3.63;1.88;;;29.10;50.60;29.60;100083.00;;;;5008038;28;20251;-53
2023/07/12 00:59:17;;;;;;;2.30;1.98;;;29.00;50.70;29.60;100091.00;;;;5008146;28;20191;-54
2023/07/12 01:01:43;;;;;;;1.88;1.75;;;29.00;50.80;29.60;100100.00;;;;5006954;28;20597;-53
2023/07/12 01:04:10;;;;;;;2.92;1.90;;;29.00;50.80;29.50;100115.00;;;;5005614;28;20712;-54
2023/07/12 01:06:35;;;;;;;2.95;2.00;;;28.90;50.80;29.50;100095.00;;;;5006352;28;20630;-53
2023/07/12 01:09:08;;;;;;;2.38;1.77;;;28.90;50.90;29.30;100085.00;;;;5007325;28;20194;-53
2023/07/12 01:11:34;;;;;;;2.30;2.10;;;28.90;50.90;29.50;100094.00;;;;5005544;28;20190;-53
2023/07/12 01:14:00;;;;;;;1.85;1.63;;;28.90;51.00;29.50;100115.00;;;;5007540;28;20603;-53
2023/07/12 01:16:26;;;;;;;2.10;1.90;;;28.90;50.60;29.40;100131.00;;;;5006133;28;20651;-53
2023/07/12 01:18:51;;;;;;;3.08;1.80;;;28.90;50.50;29.40;100130.00;;;;5007351;28;20302;-53
2023/07/12 01:21:21;;;;;;;2.28;1.90;;;28.80;50.30;29.30;100109.00;;;;5007575;28;20203;-53
2023/07/12 01:23:46;;;;;;;1.73;1.63;;;28.80;50.30;29.30;100124.00;;;;5006028;28;20210;-53
2023/07/12 01:26:34;;;;;;;2.00;1.90;;;28.70;50.40;29.20;100100.00;;;;5007316;28;20602;-52
2023/07/12 01:29:01;;;;;;;2.38;1.90;;;28.70;50.40;29.20;100087.00;;;;5005274;28;20647;-54
2023/07/12 01:31:28;;;;;;;2.03;1.80;;;28.70;50.40;29.10;100103.00;;;;5007790;28;20183;-53
2023/07/12 01:33:54;;;;;;;2.78;1.85;;;28.60;50.50;29.10;100130.00;;;;5005883;28;20251;-52
2023/07/12 01:36:20;;;;;;;2.03;1.83;;;28.60;50.60;29.00;100125.00;;;;5006162;28;20801;-53
2023/07/12 01:38:47;;;;;;;1.77;1.67;;;28.60;50.40;29.00;100132.00;;;;5010606;28;20194;-53
2023/07/12 01:41:13;;;;;;;1.90;1.80;;;28.60;50.60;29.00;100106.00;;;;5011094;28;20168;-53
2023/07/12 01:43:39;;;;;;;2.10;1.90;;;28.50;50.60;29.00;100100.00;;;;5011074;28;20203;-53
2023/07/12 01:46:04;;;;;;;2.60;1.90;;;28.50;50.60;29.00;100101.00;;;;5010816;28;20167;-53
2023/07/12 01:48:30;;;;;;;2.72;1.85;;;28.50;50.70;29.00;100108.00;;;;5011176;28;20183;-53
2023/07/12 01:50:56;;;;;;;3.35;1.88;;;28.50;50.90;29.00;100096.00;;;;5012464;28;20175;-53
2023/07/12 01:53:22;;;;;;;2.10;1.90;;;28.50;51.10;28.90;100090.00;;;;5014964;28;20552;-53
2023/07/12 01:55:47;;;;;;;2.25;1.95;;;28.50;51.30;28.90;100105.00;;;;5014384;28;20569;-55
2023/07/12 01:58:13;;;;;;;2.10;1.90;;;28.50;52.00;28.90;100122.00;;;;5012928;28;20210;-54
2023/07/12 02:00:39;;;;;;;2.25;2.05;;;28.40;51.60;28.80;100122.00;;;;5013944;28;20182;-53
2023/07/12 02:03:05;;;;;;;2.15;1.95;;;28.30;51.50;28.80;100125.00;;;;5011695;28;20214;-53
2023/07/12 02:05:31;;;;;;;2.33;2.00;;;28.40;51.70;28.80;100147.00;;;;5010264;28;20246;-53
2023/07/12 02:07:58;;;;;;;2.75;2.08;;;28.30;51.80;28.70;100154.00;;;;5010738;28;20314;-53
2023/07/12 02:10:24;;;;;;;3.40;2.00;;;28.30;51.90;28.70;100149.00;;;;5010604;28;20178;-52
2023/07/12 02:12:50;;;;;;;2.20;2.00;;;28.20;51.90;28.60;100134.00;;;;5010517;28;20551;-53
2023/07/12 02:15:16;;;;;;;2.63;1.95;;;28.20;52.10;28.60;100131.00;;;;5009965;28;20176;-53
2023/07/12 02:17:42;;;;;;;2.65;2.10;;;28.20;52.60;28.60;100131.00;;;;4992997;28;20263;-54
2023/07/12 02:20:08;;;;;;;2.03;1.83;;;28.10;52.70;28.60;100141.00;;;;5010673;28;20176;-53
2023/07/12 02:22:35;;;;;;;2.08;1.88;;;28.20;52.90;28.60;100153.00;;;;5009281;28;20204;-53
2023/07/12 02:25:01;;;;;;;2.20;2.00;;;28.10;53.00;28.50;100177.00;;;;5009888;28;20178;-53
2023/07/12 02:27:27;;;;;;;2.65;2.13;;;28.10;53.10;28.50;100175.00;;;;5009174;28;20188;-54
2023/07/12 02:29:53;;;;;;;2.75;2.00;;;28.10;53.20;28.40;100201.00;;;;5009188;28;20183;-53
2023/07/12 02:32:20;;;;;;;2.22;2.03;;;28.00;53.20;28.30;100200.00;;;;5010638;28;20654;-52
2023/07/12 02:34:47;;;;;;;2.28;1.90;;;28.00;53.30;28.30;100207.00;;;;5010064;28;20179;-53
2023/07/12 02:37:13;;;;;;;2.33;2.13;;;27.90;53.70;28.20;100195.00;;;;5010496;28;20164;-52
2023/07/12 02:39:39;;;;;;;4.25;2.20;;;27.80;53.80;28.20;100205.00;;;;5010138;28;20175;-53
2023/07/12 02:42:06;;;;;;;2.20;2.00;;;27.80;53.70;28.20;100184.00;;;;5002457;28;20227;-53
2023/07/12 02:44:32;;;;;;;3.15;2.38;;;27.80;53.90;28.10;100185.00;;;;5016709;28;20203;-52
2023/07/12 02:46:57;;;;;;;2.17;2.00;;;27.70;53.80;28.10;100190.00;;;;5015670;28;20222;-53
2023/07/12 02:49:23;;;;;;;2.17;1.98;;;27.70;53.80;28.10;100188.00;;;;5010447;28;20620;-52
2023/07/12 02:51:49;;;;;;;3.85;2.10;;;27.70;54.00;28.10;100180.00;;;;5008357;28;20267;-51
2023/07/12 02:54:15;;;;;;;3.10;2.08;;;27.70;54.00;28.10;100181.00;;;;4999570;28;20187;-54
2023/07/12 02:56:40;;;;;;;2.70;2.20;;;27.70;53.90;28.10;100190.00;;;;5009021;28;20180;-52
2023/07/12 02:59:06;;;;;;;2.83;2.20;;;27.70;53.80;28.10;100196.00;;;;5009300;28;20283;-52
2023/07/12 03:01:32;;;;;;;2.70;2.50;;;27.70;53.90;28.00;100220.00;;;;5010271;28;20211;-55
2023/07/12 03:03:57;;;;;;;3.30;2.30;;;27.70;54.00;28.00;100226.00;;;;5004551;28;20288;-52
2023/07/12 03:06:23;;;;;;;2.67;2.20;;;27.60;53.90;28.00;100236.00;;;;5006366;28;20171;-56
2023/07/12 03:08:49;;;;;;;2.45;2.10;;;27.60;53.70;27.90;100228.00;;;;5003314;28;20243;-52
2023/07/12 03:11:15;;;;;;;3.20;2.33;;;27.50;53.50;27.70;100243.00;;;;5006180;28;20732;-52
2023/07/12 03:13:41;;;;;;;4.00;2.67;;;27.50;53.30;27.80;100241.00;;;;5010523;28;20544;-56
2023/07/12 03:16:07;;;;;;;3.65;2.33;;;27.00;53.30;27.70;100246.00;;;;5010287;28;20180;-56
2023/07/12 03:18:32;;;;;;;3.10;2.42;;;26.30;55.50;27.60;100258.00;;;;5009759;28;20310;-57
2023/07/12 03:21:02;;;;;;;3.58;2.55;;;26.30;55.60;27.60;100257.00;;;;5009419;28;20258;-56
2023/07/12 03:23:29;;;;;;;4.15;2.47;;;26.00;56.00;27.60;100261.00;;;;5009450;28;20748;-56
2023/07/12 03:25:55;;;;;;;3.20;2.22;;;26.10;55.80;27.50;100268.00;;;;5008573;28;20219;-58
2023/07/12 03:28:21;;;;;;;4.10;2.30;;;26.20;56.10;27.50;100280.00;;;;5010269;28;20207;-56
2023/07/12 03:31:06;;;;;;;3.42;2.30;;;26.00;55.50;27.40;100276.00;;;;5009295;28;20180;-57
2023/07/12 03:33:32;;;;;;;3.28;2.55;;;26.00;56.10;27.30;100284.00;;;;5011349;28;20175;-62
2023/07/12 03:35:59;;;;;;;2.40;2.20;;;26.20;55.80;27.40;100263.00;;;;5013826;28;20756;-62
2023/07/12 03:38:25;;;;;;;3.15;2.60;;;26.40;55.10;27.40;100289.00;;;;5008270;28;20214;-57
2023/07/12 03:40:55;;;;;;;4.70;2.38;;;26.00;55.90;27.30;100272.00;;;;5002000;28;20259;-57
2023/07/12 03:43:21;;;;;;;2.83;2.20;;;26.20;55.60;27.30;100274.00;;;;5010923;28;20547;-57
2023/07/12 03:45:47;;;;;;;3.30;2.20;;;26.50;55.20;27.30;100280.00;;;;5010725;28;20258;-57
2023/07/12 03:48:13;;;;;;;2.60;2.40;;;26.40;54.40;27.40;100268.00;;;;5010984;28;20196;-58
2023/07/12 03:50:41;;;;;;;2.40;2.20;;;26.60;53.90;27.40;100256.00;;;;5010665;28;20172;-57
2023/07/12 03:53:07;;;;;;;2.30;2.10;;;26.70;53.60;27.40;100254.00;;;;5014049;28;20271;-57
2023/07/12 03:55:34;;;;;;;3.33;2.15;;;26.60;53.80;27.40;100256.00;;;;5015292;28;20203;-57
2023/07/12 03:57:59;;;;;;;2.10;1.90;;;26.80;53.60;27.40;100235.00;;;;5014720;28;20211;-57
2023/07/12 04:00:25;;;;;;;2.78;2.10;;;27.00;53.00;27.50;100246.00;;;;5008579;28;20244;-57
2023/07/12 04:02:51;;;;;;;2.90;2.30;;;26.90;52.30;27.50;100242.00;;;;5009660;28;20849;-57
2023/07/12 04:05:17;;;;;;;2.28;2.08;;;26.90;52.10;27.50;100231.00;;;;5009320;28;20199;-57
2023/07/12 04:07:43;;;;;;;2.30;2.10;;;26.80;52.60;27.50;100246.00;;;;5009065;28;20219;-58
2023/07/12 04:10:09;;;;;;;2.20;2.00;;;26.40;52.70;27.40;100259.00;;;;5011516;28;20725;-56
2023/07/12 04:12:35;;;;;;;2.35;2.00;;;25.60;52.60;27.20;100256.00;;;;5011438;28;20172;-57
2023/07/12 04:15:01;;;;;;;2.90;2.00;;;25.60;53.60;27.20;100240.00;;;;5009392;28;20218;-58
2023/07/12 04:17:27;;;;;;;2.33;1.90;;;25.60;53.40;27.10;100252.00;;;;5009680;28;20191;-55
2023/07/12 04:19:52;;;;;;;5.47;1.90;;;25.70;54.40;27.10;100241.00;;;;5009744;28;20693;-57
2023/07/12 04:22:18;;;;;;;3.00;1.90;;;25.90;53.10;27.10;100245.00;;;;5009588;28;20184;-56
2023/07/12 04:24:49;;;;;;;3.75;1.90;;;25.70;53.40;27.10;100227.00;;;;5003128;28;20180;-55
2023/07/12 04:27:15;;;;;;;4.45;2.00;;;25.80;53.70;27.10;100227.00;;;;4993230;28;20184;-57
2023/07/12 04:29:41;;;;;;;2.83;1.90;;;25.80;54.20;27.10;100224.00;;;;4989237;28;20777;-56
2023/07/12 04:32:07;;;;;;;3.60;2.10;;;26.30;53.80;27.10;100227.00;;;;4989003;28;20176;-56
2023/07/12 04:34:33;;;;;;;2.40;1.85;;;26.40;53.30;27.20;100230.00;;;;4988804;28;20394;-56
2023/07/12 04:36:58;;;;;;;3.75;2.20;;;26.70;52.90;27.20;100240.00;;;;4989400;28;20176;-57
2023/07/12 04:39:24;;;;;;;4.43;2.20;;;26.80;52.20;27.30;100255.00;;;;4989132;28;20180;-57
2023/07/12 04:41:50;;;;;;;2.35;2.00;;;26.90;52.50;27.30;100253.00;;;;4989563;28;20172;-55
2023/07/12 04:44:15;;;;;;;2.53;2.00;;;27.00;53.00;27.30;100255.00;;;;4988748;28;20200;-56
2023/07/12 04:46:41;;;;;;;3.55;1.90;;;26.90;52.40;27.30;100264.00;;;;4989321;28;20656;-56
2023/07/12 04:49:08;;;;;;;2.22;1.98;;;26.40;53.30;27.30;100262.00;;;;4989015;28;20200;-56
2023/07/12 04:51:34;;;;;;;2.10;1.90;;;26.20;52.80;27.20;100272.00;;;;5002429;28;20191;-56
2023/07/12 04:54:00;;;;;;;2.72;1.90;;;25.60;53.90;27.00;100268.00;;;;4998646;28;20248;-56
2023/07/12 04:56:26;;;;;;;3.20;1.92;;;25.40;55.80;26.90;100285.00;;;;4991113;28;20200;-56
2023/07/12 04:58:53;;;;;;;2.10;1.90;;;25.30;55.80;26.80;100277.00;;;;4989140;28;20663;-56
2023/07/12 05:01:19;;;;;;;3.80;2.20;;;25.20;56.30;26.80;100279.00;;;;4989083;28;20230;-55
2023/07/12 05:03:45;;;;;;;2.42;1.90;;;25.10;55.40;26.70;100285.00;;;;4990253;28;20222;-57
2023/07/12 05:06:11;;;;;;;3.05;2.00;;;25.00;56.40;26.60;100277.00;;;;4994594;28;20249;-62
2023/07/12 05:08:37;;;;;;;2.10;1.88;;;24.90;55.50;26.50;100285.00;;;;5003484;28;20196;-56
2023/07/12 05:11:03;;;;;;;2.15;1.98;;;24.60;55.90;26.40;100280.00;;;;4988791;28;20200;-55
2023/07/12 05:13:29;;;;;;;2.10;1.90;;;25.00;56.80;26.40;100279.00;;;;4989153;28;20176;-57
2023/07/12 05:15:55;;;;;;;1.80;1.70;;;24.70;55.90;26.30;100291.00;;;;4970809;28;20199;-57
2023/07/12 05:18:21;;;;;;;1.98;1.88;;;25.00;56.50;26.30;100290.00;;;;4988262;28;20227;-57
2023/07/12 05:20:48;;;;;;;1.70;1.55;;;25.00;56.20;26.40;100292.00;;;;4988823;28;20184;-56
2023/07/12 05:23:13;;;;;;;1.73;1.63;;;25.20;56.40;26.40;100285.00;;;;4988347;28;20195;-56
2023/07/12 05:25:45;;;;;;;2.10;1.90;;;25.20;56.10;26.40;100305.00;;;;4987886;28;20252;-57
2023/07/12 05:28:11;;;;;;;2.10;1.90;;;25.50;55.20;26.40;100298.00;;;;4968411;28;20239;-56
2023/07/12 05:30:37;;;;;;;2.22;1.80;;;25.30;56.00;26.50;100305.00;;;;4987661;28;20658;-56
2023/07/12 05:33:02;;;;;;;2.90;1.77;;;25.50;55.70;26.10;100316.00;;;;4988913;28;20244;-57
2023/07/12 05:35:28;;;;;;;2.22;1.90;;;25.00;56.70;26.30;100324.00;;;;4988676;28;20183;-55
2023/07/12 05:37:54;;;;;;;2.67;2.05;;;24.70;56.60;26.30;100324.00;;;;4988956;28;20195;-55
2023/07/12 05:40:20;;;;;;;3.92;2.08;;;24.90;57.30;26.30;100319.00;;;;4988349;28;20173;-56
2023/07/12 05:42:45;;;;;;;2.30;2.10;;;25.10;57.00;26.20;100326.00;;;;4971561;28;20200;-55
2023/07/12 05:45:14;;;;;;;2.42;1.95;;;24.60;57.00;26.10;100332.00;;;;4988570;28;20177;-57
2023/07/12 05:47:42;;;;;;;2.72;2.00;;;24.40;57.60;26.00;100337.00;;;;4988557;28;20196;-57
2023/07/12 05:50:11;;;;;;;2.17;1.95;;;24.00;58.30;25.90;100340.00;;;;4971473;28;20172;-56
2023/07/12 05:52:37;;;;;;;1.90;1.80;;;23.70;58.80;25.70;100347.00;;;;4971820;28;20184;-56
2023/07/12 05:55:06;;;;;;;2.10;1.83;;;23.70;59.70;25.60;100355.00;;;;4970387;28;20175;-56
2023/07/12 05:57:32;;;;;;;2.93;2.00;;;23.30;59.00;25.40;100368.00;;;;4970913;28;20192;-57
2023/07/12 05:59:57;;;;;;;2.10;1.90;;;23.10;60.20;25.20;100371.00;;;;4987681;28;20567;-56
2023/07/12 06:02:23;;;;;;;2.10;1.90;;;22.50;61.70;25.00;100370.00;;;;4988415;28;20173;-58
2023/07/12 06:04:49;;;;;;;2.03;1.70;;;22.70;62.00;24.90;100377.00;;;;4987487;28;20196;-55
2023/07/12 06:07:15;;;;;;;1.90;1.80;;;22.40;61.90;24.70;100386.00;;;;4987565;28;20183;-56
2023/07/12 06:09:41;;;;;;;2.03;1.90;;;22.40;62.90;24.60;100385.00;;;;4970603;28;20207;-56
2023/07/12 06:12:08;;;;;;;2.17;1.97;;;22.30;63.10;24.40;100372.00;;;;4988352;28;20169;-56
2023/07/12 06:14:33;;;;;;;2.07;1.87;;;21.80;64.10;24.20;100389.00;;;;4988342;28;20196;-56
2023/07/12 06:16:59;;;;;;;2.10;1.90;;;21.80;65.00;24.10;100399.00;;;;4991684;28;20176;-62
2023/07/12 06:19:25;;;;;;;3.13;1.93;;;21.80;65.00;24.00;100389.00;;;;4991845;28;20200;-56
2023/07/12 06:21:52;;;;;;;2.07;1.87;;;21.90;64.70;24.00;100381.00;;;;4988462;28;20192;-56
2023/07/12 06:24:18;;;;;;;2.03;1.83;;;22.00;64.30;23.90;100384.00;;;;4989916;28;20287;-55
2023/07/12 06:26:43;;;;;;;2.00;1.77;;;22.00;64.40;24.00;100382.00;;;;4992040;28;20775;-56
2023/07/12 06:29:09;;;;;;;2.97;1.80;;;22.20;63.80;24.00;100378.00;;;;4991756;28;20208;-56
2023/07/12 06:31:35;;;;;;;2.00;1.80;;;22.20;64.10;24.00;100377.00;;;;4992208;28;20651;-55
2023/07/12 06:34:03;;;;;;;2.30;2.10;;;22.00;64.30;23.90;100373.00;;;;4991577;28;20546;-55
2023/07/12 06:36:30;;;;;;;2.57;2.07;;;21.80;65.00;23.80;100383.00;;;;4991262;28;20187;-56
2023/07/12 06:38:56;;;;;;;2.50;2.03;;;21.80;65.60;23.80;100368.00;;;;4990993;28;20250;-56
2023/07/12 06:41:22;;;;;;;3.03;2.07;;;22.10;65.00;23.80;100361.00;;;;4991683;28;20184;-57
2023/07/12 06:43:47;;;;;;;2.53;2.30;;;22.00;65.00;23.90;100371.00;;;;4991479;28;20204;-57
2023/07/12 06:46:13;;;;;;;3.40;1.80;;;22.10;64.60;23.80;100368.00;;;;4991268;28;20661;-58
2023/07/12 06:48:39;;;;;;;2.80;2.20;;;22.00;65.30;23.70;100376.00;;;;4991362;28;20559;-56
2023/07/12 06:51:05;;;;;;;2.80;2.20;;;21.80;66.00;23.60;100370.00;;;;4990880;28;20173;-57
2023/07/12 06:53:31;;;;;;;4.17;2.50;;;21.80;66.10;23.60;100378.00;;;;5000825;28;20673;-55
2023/07/12 06:55:56;;;;;;;3.23;2.20;;;21.70;65.90;23.60;100379.00;;;;5008483;28;20176;-55
2023/07/12 06:58:22;;;;;;;2.67;2.00;;;21.70;66.20;23.60;100375.00;;;;5013625;28;20196;-55
2023/07/12 07:00:48;;;;;;;3.77;2.10;;;21.80;65.90;23.70;100365.00;;;;5003068;28;20179;-57
2023/07/12 07:03:14;;;;;;;3.57;2.20;;;22.40;64.70;23.80;100365.00;;;;5011623;28;20670;-57
2023/07/12 07:05:42;;;;;;;3.03;1.90;;;22.50;63.90;23.90;100378.00;;;;5011523;28;20171;-56
2023/07/12 07:08:07;;;;;;;3.40;2.00;;;22.40;63.50;24.00;100380.00;;;;5008977;28;20206;-56
2023/07/12 07:10:33;;;;;;;3.27;2.00;;;22.90;62.60;24.00;100370.00;;;;5014065;28;20176;-57
2023/07/12 07:13:00;;;;;;;3.43;1.93;;;22.50;63.00;23.90;100383.00;;;;5008478;28;20307;-57
2023/07/12 07:15:25;;;;;;;3.60;2.30;;;22.20;64.10;23.90;100375.00;;;;5006351;28;20186;-54
2023/07/12 07:17:51;;;;;;;4.43;1.87;;;22.10;63.50;23.70;100377.00;;;;5011205;28;20191;-56
2023/07/12 07:20:17;;;;;;;2.17;1.80;;;22.00;64.30;23.80;100381.00;;;;5019644;28;20175;-58
2023/07/12 07:22:42;;;;;;;4.17;2.10;;;22.00;64.30;23.70;100387.00;;;;5019300;28;20655;-57
2023/07/12 07:25:08;;;;;;;2.93;2.00;;;21.90;64.20;23.70;100384.00;;;;5014505;28;20171;-57
2023/07/12 07:27:34;;;;;;;2.80;2.20;;;22.10;63.40;23.70;100389.00;;;;5010759;28;20187;-56
2023/07/12 07:30:00;;;;;;;2.33;1.90;;;22.30;62.80;23.60;100386.00;;;;5009770;28;20272;-56
2023/07/12 07:32:26;;;;;;;2.20;1.70;;;21.80;63.10;23.60;100397.00;;;;4998649;28;20173;-56
2023/07/12 07:34:51;;;;;;;3.13;2.00;;;21.90;63.20;23.60;100402.00;;;;5008783;28;20180;-57
2023/07/12 07:37:18;;;;;;;3.83;2.27;;;22.00;63.30;23.60;100404.00;;;;5010137;28;20287;-56
2023/07/12 07:39:44;;;;;;;2.27;2.00;;;22.00;62.00;23.60;100419.00;;;;5009685;28;20255;-56
2023/07/12 07:42:09;;;;;;;3.67;2.13;;;22.10;61.80;23.60;100406.00;;;;5010333;28;20203;-57
2023/07/12 07:44:35;;;;;;;4.97;2.07;;;22.20;61.20;23.60;100425.00;;;;5008385;28;20206;-56
2023/07/12 07:47:01;;;;;;;6.60;2.17;;;22.20;60.50;23.60;100414.00;;;;5009243;28;20179;-56
2023/07/12 07:49:27;;;;;;;7.20;2.27;;;21.90;61.30;23.40;100417.00;;;;5009934;28;20174;-56
2023/07/12 07:51:54;;;;;;;3.53;2.23;;;21.50;60.80;23.30;100429.00;;;;5010375;28;20215;-56
2023/07/12 07:54:19;;;;;;;5.83;2.20;;;21.50;61.10;23.30;100422.00;;;;5009012;28;20172;-57
2023/07/12 07:56:45;;;;;;;5.53;2.30;;;21.60;60.60;23.30;100425.00;;;;5010057;28;20761;-57
2023/07/12 07:59:12;;;;;;;4.00;2.20;;;21.80;60.40;23.30;100419.00;;;;5009672;28;20662;-56
2023/07/12 08:01:38;;;;;;;4.10;2.20;;;21.80;59.80;23.40;100424.00;;;;5010068;28;20251;-56
2023/07/12 08:04:04;;;;;;;3.27;2.37;;;22.00;59.50;23.40;100428.00;;;;5009661;28;20762;-55
2023/07/12 08:06:30;;;;;;;4.63;2.23;;;21.90;58.30;23.30;100418.00;;;;5008513;28;20175;-57
2023/07/12 08:08:55;;;;;;;3.43;1.90;;;21.80;57.60;23.30;100435.00;;;;5009754;28;20194;-56
2023/07/12 08:11:21;;;;;;;5.87;2.37;;;21.70;56.20;23.20;100426.00;;;;5009822;28;20172;-56
2023/07/12 08:13:47;;;;;;;3.20;2.00;;;21.60;56.10;23.10;100424.00;;;;5009554;28;20176;-57
2023/07/12 08:16:13;;;;;;;3.23;1.93;;;21.50;56.80;23.10;100412.00;;;;5009353;28;20194;-57
2023/07/12 08:18:39;;;;;;;5.60;2.30;;;21.50;56.60;23.10;100412.00;;;;5009762;28;20686;-55
2023/07/12 08:21:05;;;;;;;3.90;2.30;;;21.60;56.70;23.00;100415.00;;;;5009906;28;20183;-56
2023/07/12 08:23:30;;;;;;;3.67;2.43;;;21.40;57.30;23.00;100414.00;;;;5009579;28;20202;-56
2023/07/12 08:25:56;;;;;;;4.87;2.50;;;21.60;57.30;23.00;100421.00;;;;5009112;28;20234;-56
2023/07/12 08:28:22;;;;;;;5.27;2.33;;;21.70;57.20;23.00;100419.00;;;;5009353;28;20218;-56
2023/07/12 08:30:48;;;;;;;5.27;2.30;;;21.70;57.50;23.10;100413.00;;;;5001501;28;20171;-57
2023/07/12 08:33:14;;;;;;;4.80;2.43;;;21.80;57.50;23.10;100426.00;;;;5009737;28;20195;-57
2023/07/12 08:35:40;;;;;;;4.00;2.23;;;21.80;57.50;22.80;100421.00;;;;5008070;28;20220;-57
2023/07/12 08:38:05;;;;;;;5.70;2.50;;;21.70;57.70;23.00;100427.00;;;;5009183;28;20204;-57
2023/07/12 08:40:31;;;;;;;3.27;2.20;;;21.70;57.50;23.10;100410.00;;;;5009937;28;20678;-57
2023/07/12 08:42:58;;;;;;;3.17;2.13;;;21.90;57.60;23.10;100425.00;;;;5008769;28;20227;-60
2023/07/12 08:45:28;;;;;;;3.67;2.00;;;21.80;57.90;23.10;100434.00;;;;5016391;28;20180;-56
2023/07/12 08:47:57;;;;;;;2.90;2.07;;;21.80;58.00;23.10;100430.00;;;;5009282;28;20199;-56
2023/07/12 08:50:24;;;;;;;5.63;2.33;;;21.90;58.00;23.10;100436.00;;;;5007854;28;20254;-56
2023/07/12 08:52:49;;;;;;;4.67;2.30;;;22.10;58.10;23.20;100427.00;;;;5007745;28;20675;-56
2023/07/12 08:55:20;;;;;;;3.33;2.07;;;22.00;58.10;23.20;100427.00;;;;5007631;28;20203;-57
2023/07/12 08:58:24;;;;;;;2.50;2.03;;;21.90;58.30;23.20;100439.00;;;;5013121;28;20199;-56
2023/07/12 09:01:09;;;;;;;3.80;2.30;;;21.80;58.90;23.10;100439.00;;;;4994801;28;20191;-56
2023/07/12 09:03:34;;;;;;;3.17;2.20;;;21.90;59.00;23.10;100443.00;;;;5010671;28;20238;-55
2023/07/12 09:06:00;;;;;;;3.93;2.20;;;21.60;58.50;23.00;100444.00;;;;5009776;28;20176;-58
2023/07/12 09:08:37;;;;;;;5.97;2.40;;;21.60;58.10;23.00;100432.00;;;;5011227;28;20192;-57
2023/07/12 09:11:03;;;;;;;3.87;2.10;;;21.90;58.30;23.10;100437.00;;;;4988473;28;20180;-57
2023/07/12 09:13:36;;;;;;;2.60;1.90;;;22.30;57.30;23.30;100422.00;;;;5021900;28;20175;-57
2023/07/12 09:16:02;;;;;;;3.00;2.10;;;22.70;56.80;23.50;100427.00;;;;4991668;28;20175;-57
2023/07/12 09:18:34;;;;;;;2.43;1.80;;;23.00;56.20;23.60;100431.00;;;;5008473;28;20285;-57
2023/07/12 09:21:10;;;;;;;2.43;2.00;;;23.10;55.80;23.80;100424.00;;;;5008740;28;20540;-57
2023/07/12 09:23:41;;;;;;;4.07;1.93;;;23.30;55.50;23.90;100436.00;;;;4991977;28;20195;-58
2023/07/12 09:26:26;;;;;;;2.43;1.97;;;23.40;55.20;24.00;100438.00;;;;5003155;28;20227;-58
2023/07/12 09:29:04;;;;;;;2.17;1.77;;;23.60;55.20;24.10;100426.00;;;;5001619;28;20553;-58
2023/07/12 09:31:30;;;;;;;1.90;1.80;;;23.60;55.00;24.20;100426.00;;;;5006807;28;20171;-57
2023/07/12 09:33:58;;;;;;;2.13;1.90;;;23.70;54.80;24.20;100429.00;;;;5006980;28;20180;-58
2023/07/12 09:36:24;;;;;;;1.87;1.53;;;23.80;54.70;24.30;100430.00;;;;5006886;28;20556;-58
2023/07/12 09:38:49;;;;;;;2.60;1.80;;;23.90;54.60;24.40;100446.00;;;;5008074;28;20199;-58
2023/07/12 09:41:22;;;;;;;2.90;2.00;;;23.90;54.50;24.50;100389.00;;;;5007702;28;20168;-57
2023/07/12 09:43:56;;;;;;;2.00;1.77;;;24.00;54.40;24.50;100439.00;;;;5008053;28;20286;-57
2023/07/12 09:46:38;;;;;;;2.07;1.67;;;24.10;54.30;24.60;100445.00;;;;5006679;28;20171;-57
2023/07/12 09:49:13;;;;;;;1.87;1.60;;;24.10;54.20;24.60;100443.00;;;;5006098;28;20325;-57
2023/07/12 09:52:11;;;;;;;2.50;1.77;;;24.20;54.20;24.70;100448.00;;;;5006559;28;20182;-57
2023/07/12 09:54:50;;;;;;;1.87;1.77;;;24.20;54.10;24.70;100447.00;;;;5007369;28;20748;-57
2023/07/12 09:57:36;;;;;;;2.87;1.80;;;24.30;54.00;24.70;100443.00;;;;5007086;28;20179;-59
2023/07/12 10:00:12;;;;;;;2.70;1.83;;;24.30;53.80;24.80;100435.00;;;;5010602;28;20262;-58
2023/07/12 10:02:54;;;;;;;2.53;1.90;;;24.40;53.80;24.80;100453.00;;;;5010817;28;20205;-57
2023/07/12 10:05:20;;;;;;;2.03;1.80;;;24.40;53.80;24.80;100450.00;;;;4994039;28;20207;-58
2023/07/12 10:08:01;;;;;;;2.08;1.88;;;24.40;53.80;24.90;100451.00;;;;4994560;28;20630;-57
2023/07/12 10:10:53;;;;;;;2.67;1.83;;;24.40;53.80;24.90;100451.00;;;;5009762;28;20205;-61
2023/07/12 10:13:25;;;;;;;1.80;1.67;;;24.40;53.80;24.90;100445.00;;;;4978516;28;20179;-57
2023/07/12 10:15:51;;;;;;;3.45;2.05;;;24.50;53.90;24.90;100455.00;;;;5003865;28;20179;-57
2023/07/12 10:18:19;;;;;;;2.53;1.70;;;24.40;53.80;25.00;100448.00;;;;5011677;28;20219;-57
2023/07/12 10:20:47;;;;;;;4.20;1.93;;;24.50;53.90;25.00;100439.00;;;;4994181;28;20179;-57
2023/07/12 10:23:13;;;;;;;1.98;1.60;;;24.50;53.80;25.00;100442.00;;;;4993751;28;20215;-57
2023/07/12 10:25:44;;;;;;;2.35;1.88;;;24.50;53.60;25.00;100457.00;;;;4992300;28;20242;-57
2023/07/12 10:28:41;;;;;;;3.40;1.85;;;24.50;53.50;25.00;100445.00;;;;4994973;28;20746;-57
2023/07/12 10:31:33;;;;;;;4.57;2.03;;;24.50;53.50;25.00;100449.00;;;;4972731;28;20195;-57
2023/07/12 10:34:22;;;;;;;2.70;1.92;;;24.60;53.70;25.10;100444.00;;;;4996311;28;20565;-57
2023/07/12 10:36:51;;;;;;;2.17;1.63;;;24.60;53.70;25.10;100445.00;;;;4979683;28;20681;-56
2023/07/12 10:39:16;;;;;;;3.03;1.77;;;24.60;53.60;25.20;100449.00;;;;5000359;28;20192;-57
2023/07/12 10:41:48;;;;;;;4.68;2.20;;;24.70;53.60;25.20;100446.00;;;;4982344;28;20199;-51
2023/07/12 10:44:23;;;;;;;3.27;1.80;;;24.70;54.10;25.20;100466.00;;;;4993139;28;20201;-54
2023/07/12 10:46:56;;;;;;;3.35;1.80;;;24.70;53.60;25.20;100459.00;;;;4990814;28;20187;-56
2023/07/12 10:49:41;;;;;;;6.97;2.10;;;24.70;54.10;25.30;100453.00;;;;4981649;28;20207;-56
2023/07/12 10:52:09;;;;;;;3.85;1.80;;;24.70;54.10;25.30;100451.00;;;;4977699;28;20215;-56